Time;durP1;ratioP1;P1;durP2;ratioP2;P2;SDS_P1;SDS_P2;PMS_P1;PMS_P2;Temp;Humidity;BMP_temperature;BMP_pressure;BME280_temperature;BME280_humidity;BME280_pressure;Samples;Min_cycle;Max_cycle;Signal;HPM_P1;HPM_P2
2023/09/06 00:00:45;;;;;;;6.20;3.90;;;;;;;;;;107678;298;38896;-40
2023/09/06 00:03:37;;;;;;;7.00;3.90;;;;;;;;;;107727;298;39605;-40
2023/09/06 00:06:14;;;;;;;6.40;3.80;;;;;;;;;;107706;297;44034;-41
2023/09/06 00:08:52;;;;;;;6.90;4.10;;;;;;;;;;107711;297;42333;-40
2023/09/06 00:11:27;;;;;;;5.50;3.50;;;;;;;;;;107659;297;38711;-40
2023/09/06 00:14:03;;;;;;;6.10;3.60;;;;;;;;;;107728;298;39769;-40
2023/09/06 00:16:41;;;;;;;6.00;3.90;;;;;;;;;;107729;297;42825;-40
2023/09/06 00:19:17;;;;;;;6.50;4.00;;;;;;;;;;107720;298;42084;-40
2023/09/06 00:21:54;;;;;;;6.40;4.00;;;;;;;;;;107674;297;38854;-39
2023/09/06 00:24:28;;;;;;;5.80;3.70;;;;;;;;;;107742;297;40947;-39
2023/09/06 00:27:06;;;;;;;6.00;3.80;;;;;;;;;;107706;297;42823;-39
2023/09/06 00:29:40;;;;;;;5.70;3.80;;;;;;;;;;107749;297;42107;-39
2023/09/06 00:32:16;;;;;;;6.60;3.70;;;;;;;;;;107668;297;40045;-41
2023/09/06 00:34:49;;;;;;;6.10;3.90;;;;;;;;;;107743;297;40688;-38
2023/09/06 00:37:24;;;;;;;7.30;3.80;;;;;;;;;;107702;298;42909;-38
2023/09/06 00:39:59;;;;;;;6.40;4.00;;;;;;;;;;107590;297;175546;-41
2023/09/06 00:42:37;;;;;;;5.40;3.40;;;;;;;;;;107660;297;39072;-40
2023/09/06 00:45:15;;;;;;;5.90;3.60;;;;;;;;;;107706;297;40871;-40
2023/09/06 00:47:51;;;;;;;7.50;3.90;;;;;;;;;;107746;298;44057;-41
2023/09/06 00:50:34;;;;;;;6.10;3.70;;;;;;;;;;107713;297;42156;-40
2023/09/06 00:53:10;;;;;;;5.80;3.80;;;;;;;;;;107689;297;45142;-40
2023/09/06 00:55:44;;;;;;;6.40;3.70;;;;;;;;;;107726;297;39798;-40
2023/09/06 00:58:22;;;;;;;6.50;3.60;;;;;;;;;;107711;297;42746;-40
2023/09/06 01:00:57;;;;;;;6.50;3.80;;;;;;;;;;107690;297;42571;-39
2023/09/06 01:03:34;;;;;;;5.80;4.00;;;;;;;;;;107670;297;38916;-39
2023/09/06 01:06:16;;;;;;;6.50;3.80;;;;;;;;;;107742;298;39740;-39
2023/09/06 01:08:57;;;;;;;6.20;3.90;;;;;;;;;;107717;297;42581;-39
2023/09/06 01:11:32;;;;;;;6.30;3.70;;;;;;;;;;107651;297;42227;-39
2023/09/06 01:14:06;;;;;;;6.10;3.80;;;;;;;;;;107746;297;39270;-40
2023/09/06 01:16:47;;;;;;;7.20;3.90;;;;;;;;;;107758;298;39694;-39
2023/09/06 01:19:27;;;;;;;5.60;3.70;;;;;;;;;;107718;297;43003;-39
2023/09/06 01:22:12;;;;;;;5.90;3.80;;;;;;;;;;107683;297;42500;-39
2023/09/06 01:24:49;;;;;;;5.40;3.70;;;;;;;;;;107708;297;38717;-40
2023/09/06 01:27:26;;;;;;;6.00;3.80;;;;;;;;;;107708;298;39704;-39
2023/09/06 01:30:03;;;;;;;5.80;3.60;;;;;;;;;;107073;298;892875;-39
2023/09/06 01:32:39;;;;;;;8.90;5.10;;;;;;;;;;107679;297;42047;-39
2023/09/06 01:35:13;;;;;;;5.40;3.70;;;;;;;;;;107713;298;40030;-39
2023/09/06 01:37:50;;;;;;;6.00;3.90;;;;;;;;;;107716;298;39676;-40
2023/09/06 01:40:26;;;;;;;6.30;3.80;;;;;;;;;;107732;297;44234;-39
2023/09/06 01:43:00;;;;;;;6.10;3.90;;;;;;;;;;107695;297;41765;-40
2023/09/06 01:45:36;;;;;;;5.00;3.50;;;;;;;;;;107697;298;38746;-40
2023/09/06 01:48:10;;;;;;;6.10;3.90;;;;;;;;;;107713;297;39615;-41
2023/09/06 01:50:48;;;;;;;5.90;3.40;;;;;;;;;;107750;297;43276;-41
2023/09/06 01:53:25;;;;;;;5.80;3.80;;;;;;;;;;107713;297;42116;-40
2023/09/06 01:56:00;;;;;;;6.20;3.70;;;;;;;;;;107697;297;40374;-39
2023/09/06 01:58:33;;;;;;;5.80;3.70;;;;;;;;;;107709;297;39601;-40
2023/09/06 02:01:09;;;;;;;5.70;3.40;;;;;;;;;;107750;298;42811;-39
2023/09/06 02:03:43;;;;;;;5.30;3.70;;;;;;;;;;107664;297;42170;-39
2023/09/06 02:06:18;;;;;;;5.90;3.90;;;;;;;;;;107692;297;38712;-39
2023/09/06 02:08:52;;;;;;;7.30;3.70;;;;;;;;;;107739;297;39633;-40
2023/09/06 02:11:27;;;;;;;5.90;3.70;;;;;;;;;;107719;298;42830;-39
2023/09/06 02:14:00;;;;;;;6.00;3.80;;;;;;;;;;107704;297;43311;-39
2023/09/06 02:16:34;;;;;;;6.10;3.60;;;;;;;;;;107702;297;38817;-40
2023/09/06 02:19:10;;;;;;;5.80;3.70;;;;;;;;;;107626;297;175579;-39
2023/09/06 02:21:46;;;;;;;6.00;3.60;;;;;;;;;;107713;297;42860;-39
2023/09/06 02:24:23;;;;;;;6.00;3.80;;;;;;;;;;107682;297;42226;-39
2023/09/06 02:26:58;;;;;;;5.50;3.80;;;;;;;;;;107731;297;40049;-39
2023/09/06 02:29:37;;;;;;;5.20;3.50;;;;;;;;;;107677;298;39460;-39
2023/09/06 02:32:13;;;;;;;5.20;3.70;;;;;;;;;;107740;297;44255;-40
2023/09/06 02:34:47;;;;;;;6.30;3.90;;;;;;;;;;107691;297;42169;-40
2023/09/06 02:37:22;;;;;;;6.60;3.90;;;;;;;;;;107710;297;39969;-40
2023/09/06 02:39:56;;;;;;;5.80;4.00;;;;;;;;;;107713;297;39627;-41
2023/09/06 02:42:39;;;;;;;5.90;4.00;;;;;;;;;;107752;297;44082;-40
2023/09/06 02:45:16;;;;;;;5.90;4.00;;;;;;;;;;107677;298;48005;-40
2023/09/06 02:47:53;;;;;;;6.60;4.00;;;;;;;;;;107759;297;38773;-39
2023/09/06 02:50:29;;;;;;;5.80;4.20;;;;;;;;;;107761;297;40674;-39
2023/09/06 02:53:16;;;;;;;6.50;4.20;;;;;;;;;;107704;298;44934;-40
2023/09/06 02:55:51;;;;;;;7.10;4.00;;;;;;;;;;107646;297;49438;-40
2023/09/06 02:58:27;;;;;;;8.00;4.50;;;;;;;;;;107749;297;38768;-39
2023/09/06 03:01:19;;;;;;;7.30;4.40;;;;;;;;;;107744;298;39661;-40
2023/09/06 03:03:54;;;;;;;7.30;4.50;;;;;;;;;;107687;297;43082;-40
2023/09/06 03:06:33;;;;;;;7.10;4.50;;;;;;;;;;107676;298;42105;-39
2023/09/06 03:09:10;;;;;;;7.60;4.60;;;;;;;;;;107725;298;38886;-40
2023/09/06 03:11:44;;;;;;;7.40;4.90;;;;;;;;;;107724;297;39713;-40
2023/09/06 03:14:21;;;;;;;6.70;4.20;;;;;;;;;;107684;297;42862;-40
2023/09/06 03:16:57;;;;;;;7.00;4.30;;;;;;;;;;107774;297;43655;-39
2023/09/06 03:19:33;;;;;;;7.70;4.50;;;;;;;;;;107692;297;38901;-40
2023/09/06 03:22:13;;;;;;;6.90;4.40;;;;;;;;;;107706;297;39858;-40
2023/09/06 03:24:48;;;;;;;6.50;4.50;;;;;;;;;;107638;297;44060;-40
2023/09/06 03:27:24;;;;;;;6.60;4.60;;;;;;;;;;107698;297;42293;-40
2023/09/06 03:29:57;;;;;;;6.30;4.20;;;;;;;;;;107722;298;39753;-40
2023/09/06 03:32:31;;;;;;;7.80;4.40;;;;;;;;;;107723;298;40798;-40
2023/09/06 03:35:16;;;;;;;6.80;4.50;;;;;;;;;;107723;297;42830;-40
2023/09/06 03:37:51;;;;;;;6.80;4.30;;;;;;;;;;107716;297;42041;-40
2023/09/06 03:40:34;;;;;;;8.40;4.90;;;;;;;;;;107713;298;38747;-40
2023/09/06 03:43:16;;;;;;;6.70;4.50;;;;;;;;;;107725;298;39604;-39
2023/09/06 03:45:51;;;;;;;7.30;4.30;;;;;;;;;;107695;297;42904;-40
2023/09/06 03:48:33;;;;;;;6.20;4.40;;;;;;;;;;107745;297;42301;-40
2023/09/06 03:51:13;;;;;;;7.10;4.50;;;;;;;;;;107619;297;175613;-40
2023/09/06 03:53:47;;;;;;;6.50;4.30;;;;;;;;;;107737;297;39830;-39
2023/09/06 03:56:27;;;;;;;6.10;4.10;;;;;;;;;;107706;297;42713;-39
2023/09/06 03:59:01;;;;;;;5.70;4.20;;;;;;;;;;107765;297;42087;-40
2023/09/06 04:01:43;;;;;;;6.10;4.20;;;;;;;;;;107727;297;38933;-40
2023/09/06 04:04:28;;;;;;;6.10;3.90;;;;;;;;;;107715;297;39408;-39
2023/09/06 04:07:03;;;;;;;6.30;4.00;;;;;;;;;;107672;297;49831;-40
2023/09/06 04:09:39;;;;;;;5.90;3.90;;;;;;;;;;107737;298;42098;-40
2023/09/06 04:12:16;;;;;;;5.60;4.00;;;;;;;;;;107719;297;38504;-40
2023/09/06 04:14:49;;;;;;;6.20;4.10;;;;;;;;;;107739;297;39384;-40
2023/09/06 04:17:25;;;;;;;6.00;4.40;;;;;;;;;;107740;297;43004;-40
2023/09/06 04:20:18;;;;;;;5.50;3.80;;;;;;;;;;107729;302;44277;-40
2023/09/06 04:22:53;;;;;;;5.50;4.10;;;;;;;;;;107748;297;39851;-39
2023/09/06 04:25:33;;;;;;;6.20;4.00;;;;;;;;;;107732;297;39680;-40
2023/09/06 04:28:12;;;;;;;6.30;4.20;;;;;;;;;;107721;298;44377;-40
2023/09/06 04:30:51;;;;;;;5.60;3.90;;;;;;;;;;107734;297;42051;-39
2023/09/06 04:33:25;;;;;;;6.40;3.90;;;;;;;;;;107715;297;38789;-40
2023/09/06 04:36:05;;;;;;;5.40;4.10;;;;;;;;;;107710;297;39680;-40
2023/09/06 04:38:46;;;;;;;6.00;4.20;;;;;;;;;;107713;297;43069;-40
2023/09/06 04:41:23;;;;;;;6.10;4.10;;;;;;;;;;107719;297;42054;-40
2023/09/06 04:44:00;;;;;;;5.90;4.00;;;;;;;;;;107728;297;39070;-40
2023/09/06 04:46:34;;;;;;;5.70;4.10;;;;;;;;;;107732;297;39583;-40
2023/09/06 04:49:09;;;;;;;6.20;4.10;;;;;;;;;;107734;297;42858;-40
2023/09/06 04:51:47;;;;;;;5.70;3.90;;;;;;;;;;107742;297;42095;-39
2023/09/06 04:54:22;;;;;;;6.60;4.30;;;;;;;;;;107712;297;38685;-39
2023/09/06 04:57:02;;;;;;;5.70;4.00;;;;;;;;;;107664;298;39338;-39
2023/09/06 04:59:39;;;;;;;6.00;4.10;;;;;;;;;;107741;297;42786;-39
2023/09/06 05:02:13;;;;;;;5.60;4.20;;;;;;;;;;107668;298;42007;-39
2023/09/06 05:04:54;;;;;;;5.30;3.70;;;;;;;;;;107738;297;38746;-39
2023/09/06 05:07:33;;;;;;;5.90;4.00;;;;;;;;;;107673;297;40884;-40
2023/09/06 05:10:12;;;;;;;5.70;4.20;;;;;;;;;;107474;297;328867;-39
2023/09/06 05:12:46;;;;;;;6.90;4.20;;;;;;;;;;107721;297;42503;-39
2023/09/06 05:15:19;;;;;;;6.10;4.10;;;;;;;;;;107736;297;38784;-39
2023/09/06 05:17:53;;;;;;;5.10;3.80;;;;;;;;;;107686;297;39810;-39
2023/09/06 05:20:30;;;;;;;5.90;4.10;;;;;;;;;;107684;297;42907;-39
2023/09/06 05:23:10;;;;;;;6.20;4.00;;;;;;;;;;107708;297;42443;-39
2023/09/06 05:25:45;;;;;;;6.50;4.30;;;;;;;;;;107746;298;39241;-39
2023/09/06 05:28:26;;;;;;;5.70;4.10;;;;;;;;;;107671;297;40688;-39
2023/09/06 05:31:03;;;;;;;5.80;4.00;;;;;;;;;;107707;297;44054;-38
2023/09/06 05:33:36;;;;;;;5.60;3.90;;;;;;;;;;107756;298;42230;-39
2023/09/06 05:36:11;;;;;;;6.10;3.90;;;;;;;;;;107715;298;38480;-40
2023/09/06 05:38:46;;;;;;;6.60;4.40;;;;;;;;;;107669;297;40607;-39
2023/09/06 05:41:21;;;;;;;6.70;4.20;;;;;;;;;;107744;297;42836;-39
2023/09/06 05:43:54;;;;;;;7.00;4.10;;;;;;;;;;107604;297;175575;-39
2023/09/06 05:46:28;;;;;;;7.90;4.40;;;;;;;;;;107744;297;38689;-39
2023/09/06 05:49:09;;;;;;;6.90;4.80;;;;;;;;;;107707;297;46696;-39
2023/09/06 05:51:43;;;;;;;7.90;4.70;;;;;;;;;;107698;298;42934;-39
2023/09/06 05:54:17;;;;;;;7.40;5.00;;;;;;;;;;107675;297;42260;-40
2023/09/06 05:56:51;;;;;;;8.40;5.30;;;;;;;;;;107721;297;40026;-39
2023/09/06 05:59:27;;;;;;;7.90;5.10;;;;;;;;;;107696;297;45908;-39
2023/09/06 06:02:01;;;;;;;7.60;5.20;;;;;;;;;;107714;298;42808;-40
2023/09/06 06:04:36;;;;;;;8.30;5.60;;;;;;;;;;107738;297;42274;-40
2023/09/06 06:07:13;;;;;;;8.20;5.40;;;;;;;;;;107729;297;38784;-39
2023/09/06 06:09:53;;;;;;;7.30;5.30;;;;;;;;;;107825;297;47619;-40
2023/09/06 06:12:32;;;;;;;8.00;5.30;;;;;;;;;;107731;297;43000;-39
2023/09/06 06:15:15;;;;;;;7.90;5.10;;;;;;;;;;107723;298;42067;-40
2023/09/06 06:17:50;;;;;;;7.90;5.40;;;;;;;;;;107704;298;38517;-40
2023/09/06 06:20:25;;;;;;;8.50;5.40;;;;;;;;;;107724;297;40831;-39
2023/09/06 06:23:15;;;;;;;7.30;5.20;;;;;;;;;;107723;297;42565;-40
2023/09/06 06:25:49;;;;;;;7.40;5.20;;;;;;;;;;107727;297;42499;-40
2023/09/06 06:28:23;;;;;;;7.80;5.30;;;;;;;;;;107646;297;38744;-39
2023/09/06 06:30:58;;;;;;;8.40;5.60;;;;;;;;;;107605;297;175552;-39
2023/09/06 06:33:31;;;;;;;7.20;5.00;;;;;;;;;;107722;298;42910;-40
2023/09/06 06:36:05;;;;;;;8.60;5.50;;;;;;;;;;107726;297;42021;-39
2023/09/06 06:38:40;;;;;;;9.20;6.00;;;;;;;;;;107693;298;38772;-39
2023/09/06 06:41:22;;;;;;;9.90;6.00;;;;;;;;;;107717;297;39586;-39
2023/09/06 06:43:56;;;;;;;10.30;6.20;;;;;;;;;;107608;297;175020;-40
2023/09/06 06:46:35;;;;;;;9.00;5.70;;;;;;;;;;107699;297;42185;-39
2023/09/06 06:49:14;;;;;;;9.10;5.70;;;;;;;;;;107710;297;38545;-39
2023/09/06 06:51:48;;;;;;;8.30;5.80;;;;;;;;;;107726;297;39637;-39
2023/09/06 06:54:25;;;;;;;8.80;5.90;;;;;;;;;;107617;297;175601;-39
2023/09/06 06:56:58;;;;;;;9.30;6.20;;;;;;;;;;107708;298;42086;-39
2023/09/06 06:59:31;;;;;;;7.90;5.60;;;;;;;;;;107546;297;175588;-39
2023/09/06 07:02:13;;;;;;;8.10;5.80;;;;;;;;;;107739;297;39640;-39
2023/09/06 07:04:47;;;;;;;9.20;5.90;;;;;;;;;;107727;297;42793;-39
2023/09/06 07:07:20;;;;;;;7.90;6.00;;;;;;;;;;107730;297;41788;-39
2023/09/06 07:10:01;;;;;;;8.40;5.20;;;;;;;;;;107657;297;38761;-39
2023/09/06 07:12:35;;;;;;;7.60;5.40;;;;;;;;;;107725;297;39650;-39
2023/09/06 07:15:16;;;;;;;7.60;5.60;;;;;;;;;;107698;298;43107;-39
2023/09/06 07:17:51;;;;;;;8.60;5.80;;;;;;;;;;107702;298;42111;-39
2023/09/06 07:20:26;;;;;;;7.70;5.70;;;;;;;;;;107664;298;39005;-40
2023/09/06 07:23:01;;;;;;;7.40;5.40;;;;;;;;;;107707;297;39404;-39
2023/09/06 07:25:34;;;;;;;10.20;6.10;;;;;;;;;;107716;298;42558;-39
2023/09/06 07:28:08;;;;;;;7.80;5.60;;;;;;;;;;107603;290;42371;-40
2023/09/06 07:30:47;;;;;;;8.20;5.50;;;;;;;;;;107681;290;38746;-41
2023/09/06 07:33:22;;;;;;;7.30;5.70;;;;;;;;;;107697;290;39702;-40
2023/09/06 07:36:04;;;;;;;7.00;4.80;;;;;;;;;;107711;293;43027;-40
2023/09/06 07:38:44;;;;;;;8.40;5.30;;;;;;;;;;107733;297;43427;-41
2023/09/06 07:41:27;;;;;;;8.90;5.50;;;;;;;;;;107709;297;40139;-41
2023/09/06 07:44:11;;;;;;;7.80;5.10;;;;;;;;;;107715;290;39598;-42
2023/09/06 07:46:53;;;;;;;8.00;5.30;;;;;;;;;;107701;289;42827;-41
2023/09/06 07:49:44;;;;;;;7.40;5.10;;;;;;;;;;107695;290;42097;-40
2023/09/06 07:52:28;;;;;;;7.70;4.90;;;;;;;;;;107744;297;44969;-39
2023/09/06 07:55:04;;;;;;;7.90;5.00;;;;;;;;;;107718;297;39735;-38
2023/09/06 07:57:45;;;;;;;7.10;4.80;;;;;;;;;;107750;297;42810;-39
2023/09/06 08:00:25;;;;;;;8.50;4.90;;;;;;;;;;107730;297;43283;-38
2023/09/06 08:03:07;;;;;;;6.50;4.90;;;;;;;;;;107695;293;38702;-38
2023/09/06 08:05:53;;;;;;;8.60;5.20;;;;;;;;;;107706;297;40816;-39
2023/09/06 08:08:40;;;;;;;6.10;4.60;;;;;;;;;;107776;290;43449;-38
2023/09/06 08:11:26;;;;;;;7.40;4.90;;;;;;;;;;107728;298;42117;-38
2023/09/06 08:14:10;;;;;;;5.90;4.50;;;;;;;;;;107733;297;38880;-38
2023/09/06 08:16:48;;;;;;;6.10;4.70;;;;;;;;;;107730;297;40093;-38
2023/09/06 08:19:27;;;;;;;6.20;4.30;;;;;;;;;;107748;290;42979;-39
2023/09/06 08:22:06;;;;;;;7.00;4.60;;;;;;;;;;107669;297;42344;-39
2023/09/06 08:24:47;;;;;;;6.40;4.70;;;;;;;;;;107742;297;38748;-39
2023/09/06 08:27:25;;;;;;;;;;;;;;;;;;107758;297;39387;-39
2023/09/06 08:30:16;;;;;;;7.20;4.50;;;;;;;;;;107647;297;175572;-40
2023/09/06 08:32:54;;;;;;;6.70;4.70;;;;;;;;;;107693;297;42142;-39
2023/09/06 08:35:30;;;;;;;19.30;11.00;;;;;;;;;;107717;297;38951;-40
2023/09/06 08:38:11;;;;;;;6.60;4.80;;;;;;;;;;107718;290;39666;-38
2023/09/06 08:40:53;;;;;;;6.00;4.30;;;;;;;;;;107679;298;42811;-39
2023/09/06 08:43:38;;;;;;;6.60;4.40;;;;;;;;;;107723;290;47989;-38
2023/09/06 08:46:27;;;;;;;5.90;4.30;;;;;;;;;;107751;297;38675;-38
2023/09/06 08:49:08;;;;;;;5.70;4.30;;;;;;;;;;107715;290;40017;-38
2023/09/06 08:51:44;;;;;;;5.80;4.00;;;;;;;;;;107670;297;43095;-39
2023/09/06 08:54:20;;;;;;;5.90;4.30;;;;;;;;;;107725;297;43186;-42
2023/09/06 08:56:54;;;;;;;6.40;4.60;;;;;;;;;;107708;297;38492;-41
2023/09/06 08:59:32;;;;;;;6.40;4.20;;;;;;;;;;107731;290;39644;-40
2023/09/06 09:02:06;;;;;;;6.20;4.30;;;;;;;;;;107630;293;42733;-38
2023/09/06 09:04:47;;;;;;;6.10;4.10;;;;;;;;;;107703;294;42230;-36
2023/09/06 09:07:21;;;;;;;6.50;4.00;;;;;;;;;;107715;297;38735;-36
2023/09/06 09:10:04;;;;;;;5.60;4.20;;;;;;;;;;107706;297;39590;-37
2023/09/06 09:12:41;;;;;;;6.10;4.20;;;;;;;;;;107674;297;42851;-37
2023/09/06 09:15:16;;;;;;;6.00;4.10;;;;;;;;;;107726;297;42887;-39
2023/09/06 09:18:01;;;;;;;6.30;4.40;;;;;;;;;;107572;293;175166;-38
2023/09/06 09:20:41;;;;;;;6.40;4.10;;;;;;;;;;107691;298;39654;-38
2023/09/06 09:23:17;;;;;;;5.70;3.90;;;;;;;;;;107610;289;42840;-38
2023/09/06 09:25:54;;;;;;;5.90;3.80;;;;;;;;;;107721;290;42252;-39
2023/09/06 09:28:32;;;;;;;6.30;4.10;;;;;;;;;;107717;297;39999;-38
2023/09/06 09:31:09;;;;;;;6.40;3.80;;;;;;;;;;107699;297;39753;-41
2023/09/06 09:33:52;;;;;;;5.30;3.50;;;;;;;;;;107703;297;43108;-38
2023/09/06 09:36:28;;;;;;;5.60;3.70;;;;;;;;;;107695;293;41773;-38
2023/09/06 09:39:08;;;;;;;5.10;3.90;;;;;;;;;;107725;293;38885;-39
2023/09/06 09:41:47;;;;;;;5.80;3.80;;;;;;;;;;107724;294;39360;-41
2023/09/06 09:44:39;;;;;;;5.80;3.90;;;;;;;;;;107661;290;48635;-38
2023/09/06 09:47:15;;;;;;;5.60;3.90;;;;;;;;;;107706;293;42224;-39
2023/09/06 09:50:11;;;;;;;5.80;3.90;;;;;;;;;;107714;297;38846;-39
2023/09/06 09:52:49;;;;;;;5.30;3.80;;;;;;;;;;107548;297;175899;-38
2023/09/06 09:55:28;;;;;;;6.70;3.80;;;;;;;;;;107702;297;42770;-39
2023/09/06 09:58:06;;;;;;;5.40;3.90;;;;;;;;;;107732;295;42066;-39
2023/09/06 10:00:42;;;;;;;5.70;4.10;;;;;;;;;;107721;298;39651;-38
2023/09/06 10:03:17;;;;;;;5.70;3.80;;;;;;;;;;107658;297;39401;-40
2023/09/06 10:05:51;;;;;;;5.50;3.80;;;;;;;;;;107729;297;42884;-39
2023/09/06 10:08:25;;;;;;;5.10;3.70;;;;;;;;;;107689;297;42084;-40
2023/09/06 10:11:01;;;;;;;5.00;3.90;;;;;;;;;;107719;297;38691;-40
2023/09/06 10:13:41;;;;;;;5.70;4.00;;;;;;;;;;107706;297;40811;-41
2023/09/06 10:16:16;;;;;;;5.50;3.80;;;;;;;;;;107691;297;44045;-39
2023/09/06 10:18:49;;;;;;;5.70;3.80;;;;;;;;;;107717;294;42272;-39
2023/09/06 10:21:25;;;;;;;5.90;3.90;;;;;;;;;;107712;290;38728;-39
2023/09/06 10:24:08;;;;;;;5.30;3.90;;;;;;;;;;107701;297;39653;-38
2023/09/06 10:26:45;;;;;;;5.10;3.90;;;;;;;;;;107712;294;43308;-38
2023/09/06 10:29:25;;;;;;;5.70;3.90;;;;;;;;;;107703;297;43465;-38
2023/09/06 10:32:06;;;;;;;5.50;4.00;;;;;;;;;;107687;297;38768;-38
2023/09/06 10:34:49;;;;;;;5.40;3.90;;;;;;;;;;107696;290;39945;-37
2023/09/06 10:37:23;;;;;;;5.00;3.70;;;;;;;;;;107687;293;42632;-39
2023/09/06 10:39:57;;;;;;;5.80;3.80;;;;;;;;;;107681;297;43213;-38
2023/09/06 10:42:30;;;;;;;5.80;3.60;;;;;;;;;;107722;297;39091;-38
2023/09/06 10:45:20;;;;;;;4.80;3.40;;;;;;;;;;107682;298;40224;-38
2023/09/06 10:47:55;;;;;;;6.20;3.60;;;;;;;;;;107699;297;44148;-37
2023/09/06 10:50:30;;;;;;;5.90;3.80;;;;;;;;;;107709;290;41804;-40
2023/09/06 10:53:06;;;;;;;5.50;3.80;;;;;;;;;;107748;290;38514;-40
2023/09/06 10:55:50;;;;;;;5.90;3.80;;;;;;;;;;107702;298;39661;-40
2023/09/06 10:58:27;;;;;;;5.60;3.70;;;;;;;;;;107727;297;42989;-38
2023/09/06 11:01:18;;;;;;;6.00;3.60;;;;;;;;;;107670;290;42077;-41
2023/09/06 11:03:54;;;;;;;5.10;3.60;;;;;;;;;;107668;297;39106;-40
2023/09/06 11:06:29;;;;;;;5.80;3.80;;;;;;;;;;107698;298;45731;-40
2023/09/06 11:09:12;;;;;;;5.40;3.90;;;;;;;;;;107649;294;42934;-40
2023/09/06 11:11:53;;;;;;;5.50;3.60;;;;;;;;;;107657;290;43320;-40
2023/09/06 11:14:31;;;;;;;5.20;3.50;;;;;;;;;;107620;294;38730;-39
2023/09/06 11:17:05;;;;;;;5.20;3.50;;;;;;;;;;107532;294;175495;-39
2023/09/06 11:19:42;;;;;;;5.20;3.30;;;;;;;;;;107709;298;42983;-39
2023/09/06 11:22:18;;;;;;;5.80;3.70;;;;;;;;;;107698;296;42123;-40
2023/09/06 11:24:52;;;;;;;5.20;3.60;;;;;;;;;;107683;298;38733;-39
2023/09/06 11:27:33;;;;;;;5.60;3.20;;;;;;;;;;107660;294;39739;-39
2023/09/06 11:30:16;;;;;;;6.30;3.40;;;;;;;;;;107660;290;44020;-39
2023/09/06 11:32:52;;;;;;;5.00;3.40;;;;;;;;;;107665;298;42041;-39
2023/09/06 11:35:38;;;;;;;5.10;3.40;;;;;;;;;;107620;290;38703;-39
2023/09/06 11:38:16;;;;;;;4.90;3.40;;;;;;;;;;107727;297;39708;-39
2023/09/06 11:40:51;;;;;;;5.40;3.60;;;;;;;;;;107704;297;43034;-39
2023/09/06 11:43:27;;;;;;;4.80;3.40;;;;;;;;;;107706;290;42068;-39
2023/09/06 11:46:03;;;;;;;5.10;3.70;;;;;;;;;;107704;293;40654;-39
2023/09/06 11:48:39;;;;;;;6.10;4.00;;;;;;;;;;107677;297;39352;-39
2023/09/06 11:51:16;;;;;;;5.20;3.70;;;;;;;;;;107686;297;42890;-39
2023/09/06 11:54:00;;;;;;;5.10;3.70;;;;;;;;;;107708;298;42038;-39
2023/09/06 11:56:36;;;;;;;4.90;3.50;;;;;;;;;;107685;290;38708;-39
2023/09/06 11:59:14;;;;;;;5.20;3.70;;;;;;;;;;107692;293;39541;-39
2023/09/06 12:02:01;;;;;;;4.90;3.40;;;;;;;;;;107718;297;42876;-39
2023/09/06 12:04:42;;;;;;;5.60;3.60;;;;;;;;;;107720;302;42012;-39
2023/09/06 12:07:22;;;;;;;5.30;3.60;;;;;;;;;;107697;297;38808;-39
2023/09/06 12:09:56;;;;;;;5.20;3.50;;;;;;;;;;107734;297;39547;-39
2023/09/06 12:12:36;;;;;;;5.40;3.60;;;;;;;;;;107730;293;44127;-40
2023/09/06 12:15:17;;;;;;;4.80;3.30;;;;;;;;;;107694;290;42331;-40
2023/09/06 12:17:52;;;;;;;5.30;3.50;;;;;;;;;;107685;293;45922;-39
2023/09/06 12:20:27;;;;;;;5.40;3.60;;;;;;;;;;107702;297;40887;-39
2023/09/06 12:23:08;;;;;;;6.10;3.80;;;;;;;;;;107596;293;176471;-39
2023/09/06 12:25:48;;;;;;;5.60;3.60;;;;;;;;;;107681;298;42163;-37
2023/09/06 12:28:21;;;;;;;4.60;3.20;;;;;;;;;;107720;298;44943;-38
2023/09/06 12:31:02;;;;;;;5.30;3.50;;;;;;;;;;107719;297;39636;-38
2023/09/06 12:33:51;;;;;;;5.00;3.60;;;;;;;;;;107741;298;42778;-40
2023/09/06 12:36:25;;;;;;;5.70;3.40;;;;;;;;;;107669;293;43370;-40
2023/09/06 12:39:06;;;;;;;5.40;3.20;;;;;;;;;;107702;298;38893;-39
2023/09/06 12:41:42;;;;;;;4.70;3.10;;;;;;;;;;107713;297;39627;-38
2023/09/06 12:44:19;;;;;;;5.10;3.20;;;;;;;;;;107687;297;42839;-40
2023/09/06 12:46:52;;;;;;;4.70;3.30;;;;;;;;;;107692;290;42020;-38
2023/09/06 12:49:27;;;;;;;4.80;3.40;;;;;;;;;;107698;290;38737;-39
2023/09/06 12:52:03;;;;;;;5.20;3.40;;;;;;;;;;107696;297;39786;-39
2023/09/06 12:54:37;;;;;;;5.40;3.70;;;;;;;;;;107720;297;43023;-38
2023/09/06 12:57:13;;;;;;;4.90;3.40;;;;;;;;;;107675;290;42220;-39
2023/09/06 12:59:46;;;;;;;5.20;3.30;;;;;;;;;;107683;297;38703;-39
2023/09/06 13:02:20;;;;;;;5.10;3.40;;;;;;;;;;107706;297;39437;-39
2023/09/06 13:04:54;;;;;;;4.80;3.40;;;;;;;;;;107705;297;44214;-39
2023/09/06 13:07:29;;;;;;;5.20;3.60;;;;;;;;;;107648;297;42093;-40
2023/09/06 13:10:03;;;;;;;5.30;3.60;;;;;;;;;;107436;297;325796;-39
2023/09/06 13:12:37;;;;;;;4.70;3.10;;;;;;;;;;107717;297;40661;-40
2023/09/06 13:15:14;;;;;;;5.40;3.30;;;;;;;;;;107728;297;42772;-40
2023/09/06 13:17:48;;;;;;;5.10;3.30;;;;;;;;;;107581;297;195213;-39
2023/09/06 13:20:24;;;;;;;5.30;3.30;;;;;;;;;;107597;290;175600;-39
2023/09/06 13:22:58;;;;;;;5.00;3.30;;;;;;;;;;107707;293;39776;-40
2023/09/06 13:25:43;;;;;;;5.60;3.20;;;;;;;;;;107691;297;42886;-39
2023/09/06 13:28:19;;;;;;;5.50;3.40;;;;;;;;;;107664;294;41938;-40
2023/09/06 13:30:52;;;;;;;4.90;3.20;;;;;;;;;;107571;290;191789;-39
2023/09/06 13:33:25;;;;;;;4.60;3.10;;;;;;;;;;107683;297;39654;-39
2023/09/06 13:36:04;;;;;;;5.80;3.60;;;;;;;;;;107718;290;43016;-39
2023/09/06 13:38:37;;;;;;;4.80;3.20;;;;;;;;;;107679;289;42040;-39
2023/09/06 13:41:15;;;;;;;4.80;3.60;;;;;;;;;;107727;297;38783;-39
2023/09/06 13:43:56;;;;;;;4.70;3.20;;;;;;;;;;107710;293;39673;-39
2023/09/06 13:46:32;;;;;;;4.60;3.20;;;;;;;;;;107737;290;43026;-39
2023/09/06 13:49:07;;;;;;;4.80;3.30;;;;;;;;;;107654;290;42274;-40
2023/09/06 13:51:41;;;;;;;5.10;3.50;;;;;;;;;;107743;297;40389;-39
2023/09/06 13:54:15;;;;;;;4.30;3.10;;;;;;;;;;107761;297;39641;-40
2023/09/06 13:56:51;;;;;;;4.80;3.10;;;;;;;;;;107720;293;44045;-39
2023/09/06 13:59:24;;;;;;;5.20;3.20;;;;;;;;;;107649;297;42194;-39
2023/09/06 14:01:59;;;;;;;5.40;3.50;;;;;;;;;;107713;293;38911;-39
2023/09/06 14:04:35;;;;;;;5.30;3.60;;;;;;;;;;107714;297;39406;-39
2023/09/06 14:07:09;;;;;;;6.10;4.20;;;;;;;;;;107729;297;43886;-39
2023/09/06 14:09:45;;;;;;;6.80;4.60;;;;;;;;;;107674;297;42191;-39
2023/09/06 14:12:18;;;;;;;5.90;3.80;;;;;;;;;;107718;293;38725;-40
2023/09/06 14:14:54;;;;;;;6.50;4.20;;;;;;;;;;107708;290;39822;-39
2023/09/06 14:17:28;;;;;;;4.80;3.30;;;;;;;;;;107730;290;43938;-39
2023/09/06 14:20:05;;;;;;;5.40;3.60;;;;;;;;;;107662;297;43603;-40
2023/09/06 14:22:45;;;;;;;5.00;3.50;;;;;;;;;;107707;298;38818;-39
2023/09/06 14:25:18;;;;;;;5.40;3.50;;;;;;;;;;107693;303;39613;-39
2023/09/06 14:27:53;;;;;;;5.30;3.40;;;;;;;;;;107710;298;43145;-39
2023/09/06 14:30:28;;;;;;;6.00;3.70;;;;;;;;;;107643;297;43352;-40
2023/09/06 14:33:02;;;;;;;5.20;3.20;;;;;;;;;;107748;290;38657;-40
2023/09/06 14:35:46;;;;;;;5.40;3.30;;;;;;;;;;107717;298;39681;-40
2023/09/06 14:38:21;;;;;;;5.00;3.40;;;;;;;;;;107702;298;42718;-40
2023/09/06 14:41:00;;;;;;;5.30;3.40;;;;;;;;;;107646;294;48830;-41
2023/09/06 14:43:37;;;;;;;5.00;3.60;;;;;;;;;;107706;297;40255;-40
2023/09/06 14:46:12;;;;;;;6.20;3.50;;;;;;;;;;107712;294;39587;-40
2023/09/06 14:48:49;;;;;;;5.80;3.20;;;;;;;;;;107720;290;42915;-40
2023/09/06 14:51:24;;;;;;;5.00;3.30;;;;;;;;;;107744;297;49481;-40
2023/09/06 14:53:57;;;;;;;5.30;3.40;;;;;;;;;;107687;298;40905;-40
2023/09/06 14:56:30;;;;;;;5.30;3.20;;;;;;;;;;107717;290;39698;-40
2023/09/06 14:59:11;;;;;;;5.20;3.10;;;;;;;;;;107665;297;44030;-40
2023/09/06 15:01:45;;;;;;;5.30;3.10;;;;;;;;;;107699;297;42103;-40
2023/09/06 15:04:18;;;;;;;4.90;3.20;;;;;;;;;;107737;298;38780;-40
2023/09/06 15:06:55;;;;;;;5.70;3.30;;;;;;;;;;107669;290;39538;-40
2023/09/06 15:09:37;;;;;;;4.90;3.50;;;;;;;;;;107667;298;42894;-40
2023/09/06 15:12:13;;;;;;;5.20;3.20;;;;;;;;;;107702;297;41999;-40
2023/09/06 15:14:50;;;;;;;5.10;3.10;;;;;;;;;;107716;297;38833;-41
2023/09/06 15:17:26;;;;;;;5.00;3.30;;;;;;;;;;107706;298;39733;-41
2023/09/06 15:20:00;;;;;;;4.90;3.00;;;;;;;;;;107642;297;42914;-40
2023/09/06 15:22:36;;;;;;;5.10;3.40;;;;;;;;;;107701;297;42051;-40
2023/09/06 15:25:18;;;;;;;4.90;3.30;;;;;;;;;;107715;297;38776;-41
2023/09/06 15:27:52;;;;;;;5.20;3.20;;;;;;;;;;107726;297;39738;-41
2023/09/06 15:30:26;;;;;;;4.80;3.10;;;;;;;;;;107653;297;44064;-40
2023/09/06 15:33:08;;;;;;;5.00;3.30;;;;;;;;;;107704;298;42087;-40
2023/09/06 15:35:44;;;;;;;5.10;3.30;;;;;;;;;;107588;297;175418;-41
2023/09/06 15:38:19;;;;;;;5.40;3.30;;;;;;;;;;107715;290;39554;-41
2023/09/06 15:40:53;;;;;;;5.50;3.30;;;;;;;;;;107661;297;44504;-41
2023/09/06 15:43:28;;;;;;;6.40;3.50;;;;;;;;;;107715;297;42072;-41